Terminal Aerodrome Forecast
Issued by NWS

Home | Current Version | Previous Version | Text Only | Print | Product List | Glossary Off
Versions: 1 2 3 4 5 6 7 8 9 10 11 12 13 14 15 16 17 18

000
FTUS42 KMHX 202100 AAA
TAFISO
TAF AMD
KISO 202153Z 2022/2118 VRB03KT P6SM SCT030 BKN120
     FM210600 00000KT 4SM BR SCT010 BKN130
     FM211300 09005KT P6SM SCT030
      AMD LTD TO CLD VIS AND WIND=

USA.gov is the U.S. government's official web portal to all federal, state and local government web resources and services.